sensor_id;sensor_type;location;lat;lon;timestamp;temperature;humidity
18361;SHT31;9308;48.550;9.108;2023-08-30T00:01:36;17.00;73.84
18361;SHT31;9308;48.550;9.108;2023-08-30T00:04:02;16.62;75.06
18361;SHT31;9308;48.550;9.108;2023-08-30T00:06:27;16.51;75.81
18361;SHT31;9308;48.550;9.108;2023-08-30T00:08:52;16.75;74.39
18361;SHT31;9308;48.550;9.108;2023-08-30T00:11:18;16.44;75.97
18361;SHT31;9308;48.550;9.108;2023-08-30T00:13:43;16.73;74.78
18361;SHT31;9308;48.550;9.108;2023-08-30T00:16:08;16.31;76.12
18361;SHT31;9308;48.550;9.108;2023-08-30T00:18:34;16.49;75.75
18361;SHT31;9308;48.550;9.108;2023-08-30T00:20:59;16.69;74.95
18361;SHT31;9308;48.550;9.108;2023-08-30T00:23:24;16.71;74.64
18361;SHT31;9308;48.550;9.108;2023-08-30T00:25:50;16.64;74.96
18361;SHT31;9308;48.550;9.108;2023-08-30T00:28:15;16.80;74.30
18361;SHT31;9308;48.550;9.108;2023-08-30T00:30:41;16.98;73.61
18361;SHT31;9308;48.550;9.108;2023-08-30T00:33:06;16.65;74.97
18361;SHT31;9308;48.550;9.108;2023-08-30T00:35:31;16.61;74.99
18361;SHT31;9308;48.550;9.108;2023-08-30T00:37:56;16.75;74.19
18361;SHT31;9308;48.550;9.108;2023-08-30T00:40:25;16.89;73.94
18361;SHT31;9308;48.550;9.108;2023-08-30T00:42:51;16.77;74.26
18361;SHT31;9308;48.550;9.108;2023-08-30T00:45:16;16.85;74.45
18361;SHT31;9308;48.550;9.108;2023-08-30T00:47:42;16.55;74.59
18361;SHT31;9308;48.550;9.108;2023-08-30T00:50:08;16.41;75.51
18361;SHT31;9308;48.550;9.108;2023-08-30T00:52:34;16.79;74.59
18361;SHT31;9308;48.550;9.108;2023-08-30T00:55:00;16.65;74.79
18361;SHT31;9308;48.550;9.108;2023-08-30T00:57:25;16.49;75.18
18361;SHT31;9308;48.550;9.108;2023-08-30T00:59:51;16.92;73.91
18361;SHT31;9308;48.550;9.108;2023-08-30T01:02:18;16.58;74.55
18361;SHT31;9308;48.550;9.108;2023-08-30T01:04:45;16.75;74.38
18361;SHT31;9308;48.550;9.108;2023-08-30T01:07:10;17.03;73.45
18361;SHT31;9308;48.550;9.108;2023-08-30T01:09:35;16.66;73.90
18361;SHT31;9308;48.550;9.108;2023-08-30T01:12:10;16.58;74.25
18361;SHT31;9308;48.550;9.108;2023-08-30T01:14:40;16.45;75.18
18361;SHT31;9308;48.550;9.108;2023-08-30T01:17:10;16.28;75.23
18361;SHT31;9308;48.550;9.108;2023-08-30T01:19:46;16.37;74.66
18361;SHT31;9308;48.550;9.108;2023-08-30T01:25:16;16.47;74.30
18361;SHT31;9308;48.550;9.108;2023-08-30T01:27:43;16.24;74.40
18361;SHT31;9308;48.550;9.108;2023-08-30T01:30:11;15.72;76.24
18361;SHT31;9308;48.550;9.108;2023-08-30T01:32:38;16.24;74.87
18361;SHT31;9308;48.550;9.108;2023-08-30T01:35:05;16.56;74.02
18361;SHT31;9308;48.550;9.108;2023-08-30T01:37:32;16.35;74.24
18361;SHT31;9308;48.550;9.108;2023-08-30T01:39:58;16.48;74.24
18361;SHT31;9308;48.550;9.108;2023-08-30T01:42:25;16.75;73.29
18361;SHT31;9308;48.550;9.108;2023-08-30T01:44:53;16.71;73.62
18361;SHT31;9308;48.550;9.108;2023-08-30T01:47:23;16.61;74.01
18361;SHT31;9308;48.550;9.108;2023-08-30T01:49:49;16.52;73.87
18361;SHT31;9308;48.550;9.108;2023-08-30T01:52:15;16.16;74.61
18361;SHT31;9308;48.550;9.108;2023-08-30T01:54:40;16.45;73.95
18361;SHT31;9308;48.550;9.108;2023-08-30T01:57:06;16.26;73.93
18361;SHT31;9308;48.550;9.108;2023-08-30T01:59:31;16.06;74.40
18361;SHT31;9308;48.550;9.108;2023-08-30T02:01:57;15.76;75.19
18361;SHT31;9308;48.550;9.108;2023-08-30T02:04:22;15.79;75.61
18361;SHT31;9308;48.550;9.108;2023-08-30T02:07:02;15.73;76.10
18361;SHT31;9308;48.550;9.108;2023-08-30T02:09:36;15.76;75.76
18361;SHT31;9308;48.550;9.108;2023-08-30T02:12:07;15.87;75.41
18361;SHT31;9308;48.550;9.108;2023-08-30T02:14:34;16.00;74.78
18361;SHT31;9308;48.550;9.108;2023-08-30T02:17:01;15.86;75.14
18361;SHT31;9308;48.550;9.108;2023-08-30T02:19:27;15.72;75.82
18361;SHT31;9308;48.550;9.108;2023-08-30T02:21:52;15.71;76.00
18361;SHT31;9308;48.550;9.108;2023-08-30T02:24:17;15.59;75.84
18361;SHT31;9308;48.550;9.108;2023-08-30T02:26:43;15.71;75.68
18361;SHT31;9308;48.550;9.108;2023-08-30T02:29:08;15.83;75.24
18361;SHT31;9308;48.550;9.108;2023-08-30T02:31:35;15.89;75.76
18361;SHT31;9308;48.550;9.108;2023-08-30T02:34:00;15.96;75.28
18361;SHT31;9308;48.550;9.108;2023-08-30T02:36:27;15.90;75.10
18361;SHT31;9308;48.550;9.108;2023-08-30T02:38:52;16.09;74.80
18361;SHT31;9308;48.550;9.108;2023-08-30T02:41:17;16.16;73.78
18361;SHT31;9308;48.550;9.108;2023-08-30T02:43:42;15.75;75.10
18361;SHT31;9308;48.550;9.108;2023-08-30T02:46:08;15.87;74.49
18361;SHT31;9308;48.550;9.108;2023-08-30T02:48:33;15.73;75.10
18361;SHT31;9308;48.550;9.108;2023-08-30T02:50:59;15.57;75.96
18361;SHT31;9308;48.550;9.108;2023-08-30T02:53:24;15.75;75.31
18361;SHT31;9308;48.550;9.108;2023-08-30T02:55:49;15.87;75.24
18361;SHT31;9308;48.550;9.108;2023-08-30T02:58:14;15.72;75.72
18361;SHT31;9308;48.550;9.108;2023-08-30T03:00:40;15.93;74.79
18361;SHT31;9308;48.550;9.108;2023-08-30T03:03:06;15.72;75.93
18361;SHT31;9308;48.550;9.108;2023-08-30T03:05:31;15.80;75.17
18361;SHT31;9308;48.550;9.108;2023-08-30T03:07:56;15.80;75.57
18361;SHT31;9308;48.550;9.108;2023-08-30T03:10:22;15.63;75.94
18361;SHT31;9308;48.550;9.108;2023-08-30T03:12:47;15.62;75.84
18361;SHT31;9308;48.550;9.108;2023-08-30T03:15:13;15.83;75.02
18361;SHT31;9308;48.550;9.108;2023-08-30T03:17:38;15.59;75.95
18361;SHT31;9308;48.550;9.108;2023-08-30T03:20:03;15.72;75.26
18361;SHT31;9308;48.550;9.108;2023-08-30T03:22:30;16.10;74.18
18361;SHT31;9308;48.550;9.108;2023-08-30T03:24:56;16.06;73.96
18361;SHT31;9308;48.550;9.108;2023-08-30T03:29:51;15.72;74.80
18361;SHT31;9308;48.550;9.108;2023-08-30T03:32:17;15.75;74.80
18361;SHT31;9308;48.550;9.108;2023-08-30T03:34:46;15.59;74.82
18361;SHT31;9308;48.550;9.108;2023-08-30T03:37:13;15.83;74.30
18361;SHT31;9308;48.550;9.108;2023-08-30T03:39:39;15.89;73.81
18361;SHT31;9308;48.550;9.108;2023-08-30T03:42:04;15.73;74.28
18361;SHT31;9308;48.550;9.108;2023-08-30T03:44:30;15.76;74.53
18361;SHT31;9308;48.550;9.108;2023-08-30T03:46:55;16.10;74.00
18361;SHT31;9308;48.550;9.108;2023-08-30T03:49:22;15.65;75.36
18361;SHT31;9308;48.550;9.108;2023-08-30T03:51:47;15.91;74.50
18361;SHT31;9308;48.550;9.108;2023-08-30T03:54:13;15.78;74.25
18361;SHT31;9308;48.550;9.108;2023-08-30T03:56:44;15.42;75.85
18361;SHT31;9308;48.550;9.108;2023-08-30T03:59:10;15.61;74.49
18361;SHT31;9308;48.550;9.108;2023-08-30T04:01:35;15.40;75.43
18361;SHT31;9308;48.550;9.108;2023-08-30T04:04:00;15.21;75.97
18361;SHT31;9308;48.550;9.108;2023-08-30T04:06:26;15.59;75.05
18361;SHT31;9308;48.550;9.108;2023-08-30T04:08:51;15.85;74.34
18361;SHT31;9308;48.550;9.108;2023-08-30T04:11:16;15.76;74.18
18361;SHT31;9308;48.550;9.108;2023-08-30T04:13:42;15.45;74.81
18361;SHT31;9308;48.550;9.108;2023-08-30T04:16:07;15.42;75.03
18361;SHT31;9308;48.550;9.108;2023-08-30T04:18:32;15.61;73.90
18361;SHT31;9308;48.550;9.108;2023-08-30T04:20:58;15.31;74.85
18361;SHT31;9308;48.550;9.108;2023-08-30T04:23:23;15.63;73.87
18361;SHT31;9308;48.550;9.108;2023-08-30T04:25:49;15.82;73.49
18361;SHT31;9308;48.550;9.108;2023-08-30T04:28:14;15.66;73.70
18361;SHT31;9308;48.550;9.108;2023-08-30T04:30:39;15.50;74.09
18361;SHT31;9308;48.550;9.108;2023-08-30T04:33:05;15.06;75.69
18361;SHT31;9308;48.550;9.108;2023-08-30T04:35:31;15.20;75.05
18361;SHT31;9308;48.550;9.108;2023-08-30T04:37:58;15.27;74.61
18361;SHT31;9308;48.550;9.108;2023-08-30T04:40:24;15.04;75.84
18361;SHT31;9308;48.550;9.108;2023-08-30T04:42:49;14.93;75.80
18361;SHT31;9308;48.550;9.108;2023-08-30T04:45:14;15.15;74.97
18361;SHT31;9308;48.550;9.108;2023-08-30T04:47:40;15.26;75.13
18361;SHT31;9308;48.550;9.108;2023-08-30T04:50:08;15.40;74.90
18361;SHT31;9308;48.550;9.108;2023-08-30T04:52:34;15.47;74.22
18361;SHT31;9308;48.550;9.108;2023-08-30T04:54:59;15.54;74.20
18361;SHT31;9308;48.550;9.108;2023-08-30T04:57:24;15.21;74.97
18361;SHT31;9308;48.550;9.108;2023-08-30T04:59:50;15.34;75.50
18361;SHT31;9308;48.550;9.108;2023-08-30T05:02:15;15.55;74.84
18361;SHT31;9308;48.550;9.108;2023-08-30T05:04:40;15.35;75.35
18361;SHT31;9308;48.550;9.108;2023-08-30T05:07:06;15.24;75.63
18361;SHT31;9308;48.550;9.108;2023-08-30T05:09:31;15.18;75.57
18361;SHT31;9308;48.550;9.108;2023-08-30T05:11:57;15.17;75.46
18361;SHT31;9308;48.550;9.108;2023-08-30T05:14:23;15.45;74.81
18361;SHT31;9308;48.550;9.108;2023-08-30T05:16:51;15.57;74.00
18361;SHT31;9308;48.550;9.108;2023-08-30T05:19:16;15.71;73.65
18361;SHT31;9308;48.550;9.108;2023-08-30T05:21:42;15.78;74.00
18361;SHT31;9308;48.550;9.108;2023-08-30T05:24:07;15.82;73.98
18361;SHT31;9308;48.550;9.108;2023-08-30T05:26:33;15.45;75.40
18361;SHT31;9308;48.550;9.108;2023-08-30T05:28:58;15.40;76.09
18361;SHT31;9308;48.550;9.108;2023-08-30T05:31:23;15.73;74.36
18361;SHT31;9308;48.550;9.108;2023-08-30T05:33:49;15.93;73.67
18361;SHT31;9308;48.550;9.108;2023-08-30T05:36:14;16.17;73.60
18361;SHT31;9308;48.550;9.108;2023-08-30T05:38:39;16.33;73.09
18361;SHT31;9308;48.550;9.108;2023-08-30T05:41:05;16.34;73.10
18361;SHT31;9308;48.550;9.108;2023-08-30T05:43:31;16.35;73.09
18361;SHT31;9308;48.550;9.108;2023-08-30T05:45:56;16.27;73.05
18361;SHT31;9308;48.550;9.108;2023-08-30T05:48:26;16.28;72.85
18361;SHT31;9308;48.550;9.108;2023-08-30T05:50:52;16.26;73.32
18361;SHT31;9308;48.550;9.108;2023-08-30T05:53:17;16.18;72.83
18361;SHT31;9308;48.550;9.108;2023-08-30T05:55:42;16.21;73.11
18361;SHT31;9308;48.550;9.108;2023-08-30T05:58:08;16.55;72.35
18361;SHT31;9308;48.550;9.108;2023-08-30T06:00:33;16.48;72.83
18361;SHT31;9308;48.550;9.108;2023-08-30T06:02:58;16.59;72.30
18361;SHT31;9308;48.550;9.108;2023-08-30T06:05:24;16.64;72.10
18361;SHT31;9308;48.550;9.108;2023-08-30T06:07:49;16.51;71.95
18361;SHT31;9308;48.550;9.108;2023-08-30T06:10:14;16.72;71.81
18361;SHT31;9308;48.550;9.108;2023-08-30T06:12:40;16.62;72.11
18361;SHT31;9308;48.550;9.108;2023-08-30T06:15:05;16.88;71.75
18361;SHT31;9308;48.550;9.108;2023-08-30T06:17:31;16.88;71.04
18361;SHT31;9308;48.550;9.108;2023-08-30T06:19:57;16.91;71.04
18361;SHT31;9308;48.550;9.108;2023-08-30T06:22:22;16.92;71.03
18361;SHT31;9308;48.550;9.108;2023-08-30T06:24:47;16.95;70.66
18361;SHT31;9308;48.550;9.108;2023-08-30T06:27:13;17.02;71.09
18361;SHT31;9308;48.550;9.108;2023-08-30T06:29:38;17.02;71.15
18361;SHT31;9308;48.550;9.108;2023-08-30T06:32:04;16.92;70.82
18361;SHT31;9308;48.550;9.108;2023-08-30T06:34:30;16.89;71.34
18361;SHT31;9308;48.550;9.108;2023-08-30T06:36:55;16.89;71.85
18361;SHT31;9308;48.550;9.108;2023-08-30T06:39:20;17.07;71.82
18361;SHT31;9308;48.550;9.108;2023-08-30T06:41:45;17.23;70.43
18361;SHT31;9308;48.550;9.108;2023-08-30T06:44:11;17.52;70.46
18361;SHT31;9308;48.550;9.108;2023-08-30T06:46:36;17.38;70.73
18361;SHT31;9308;48.550;9.108;2023-08-30T06:49:03;17.40;70.48
18361;SHT31;9308;48.550;9.108;2023-08-30T06:51:28;17.72;70.42
18361;SHT31;9308;48.550;9.108;2023-08-30T06:53:54;17.34;70.15
18361;SHT31;9308;48.550;9.108;2023-08-30T06:56:20;17.06;70.61
18361;SHT31;9308;48.550;9.108;2023-08-30T06:58:45;17.48;70.42
18361;SHT31;9308;48.550;9.108;2023-08-30T07:01:11;17.45;70.14
18361;SHT31;9308;48.550;9.108;2023-08-30T07:03:36;17.55;69.09
18361;SHT31;9308;48.550;9.108;2023-08-30T07:06:01;17.40;68.26
18361;SHT31;9308;48.550;9.108;2023-08-30T07:08:27;17.35;68.56
18361;SHT31;9308;48.550;9.108;2023-08-30T07:10:52;17.47;69.83
18361;SHT31;9308;48.550;9.108;2023-08-30T07:13:17;17.59;69.55
18361;SHT31;9308;48.550;9.108;2023-08-30T07:15:43;17.93;69.28
18361;SHT31;9308;48.550;9.108;2023-08-30T07:18:08;17.75;69.64
18361;SHT31;9308;48.550;9.108;2023-08-30T07:20:34;17.72;67.97
18361;SHT31;9308;48.550;9.108;2023-08-30T07:23:01;17.68;68.73
18361;SHT31;9308;48.550;9.108;2023-08-30T07:25:27;18.10;68.98
18361;SHT31;9308;48.550;9.108;2023-08-30T07:27:52;18.02;69.14
18361;SHT31;9308;48.550;9.108;2023-08-30T07:30:17;18.20;69.05
18361;SHT31;9308;48.550;9.108;2023-08-30T07:32:43;18.25;67.82
18361;SHT31;9308;48.550;9.108;2023-08-30T07:35:08;18.37;68.24
18361;SHT31;9308;48.550;9.108;2023-08-30T07:37:34;18.38;68.41
18361;SHT31;9308;48.550;9.108;2023-08-30T07:39:59;18.25;68.83
18361;SHT31;9308;48.550;9.108;2023-08-30T07:42:25;18.31;69.36
18361;SHT31;9308;48.550;9.108;2023-08-30T07:44:50;18.38;69.27
18361;SHT31;9308;48.550;9.108;2023-08-30T07:47:15;18.38;68.68
18361;SHT31;9308;48.550;9.108;2023-08-30T07:49:41;18.65;68.43
18361;SHT31;9308;48.550;9.108;2023-08-30T07:52:06;18.67;68.12
18361;SHT31;9308;48.550;9.108;2023-08-30T07:54:36;18.90;67.69
18361;SHT31;9308;48.550;9.108;2023-08-30T07:57:01;18.68;68.55
18361;SHT31;9308;48.550;9.108;2023-08-30T07:59:27;19.04;67.28
18361;SHT31;9308;48.550;9.108;2023-08-30T08:01:52;19.33;66.72
18361;SHT31;9308;48.550;9.108;2023-08-30T08:04:18;19.10;66.39
18361;SHT31;9308;48.550;9.108;2023-08-30T08:06:43;19.28;66.56
18361;SHT31;9308;48.550;9.108;2023-08-30T08:09:09;19.20;66.46
18361;SHT31;9308;48.550;9.108;2023-08-30T08:11:34;19.24;66.12
18361;SHT31;9308;48.550;9.108;2023-08-30T08:13:59;19.33;66.26
18361;SHT31;9308;48.550;9.108;2023-08-30T08:16:25;19.41;66.31
18361;SHT31;9308;48.550;9.108;2023-08-30T08:18:50;19.24;65.16
18361;SHT31;9308;48.550;9.108;2023-08-30T08:21:17;19.33;66.06
18361;SHT31;9308;48.550;9.108;2023-08-30T08:23:42;19.47;66.50
18361;SHT31;9308;48.550;9.108;2023-08-30T08:26:08;19.64;66.03
18361;SHT31;9308;48.550;9.108;2023-08-30T08:28:33;19.61;65.88
18361;SHT31;9308;48.550;9.108;2023-08-30T08:30:58;19.76;65.81
18361;SHT31;9308;48.550;9.108;2023-08-30T08:33:24;19.76;65.98
18361;SHT31;9308;48.550;9.108;2023-08-30T08:35:49;19.93;66.08
18361;SHT31;9308;48.550;9.108;2023-08-30T08:38:15;20.01;65.25
18361;SHT31;9308;48.550;9.108;2023-08-30T08:40:40;20.13;66.01
18361;SHT31;9308;48.550;9.108;2023-08-30T08:43:06;20.02;65.18
18361;SHT31;9308;48.550;9.108;2023-08-30T08:45:37;20.17;64.30
18361;SHT31;9308;48.550;9.108;2023-08-30T08:48:03;20.34;64.71
18361;SHT31;9308;48.550;9.108;2023-08-30T08:50:29;20.44;64.17
18361;SHT31;9308;48.550;9.108;2023-08-30T08:52:56;20.24;63.89
18361;SHT31;9308;48.550;9.108;2023-08-30T08:55:21;20.24;63.94
18361;SHT31;9308;48.550;9.108;2023-08-30T08:57:48;20.75;63.96
18361;SHT31;9308;48.550;9.108;2023-08-30T09:00:13;20.75;63.47
18361;SHT31;9308;48.550;9.108;2023-08-30T09:02:40;20.84;62.50
18361;SHT31;9308;48.550;9.108;2023-08-30T09:05:07;20.64;63.66
18361;SHT31;9308;48.550;9.108;2023-08-30T09:07:32;20.91;63.03
18361;SHT31;9308;48.550;9.108;2023-08-30T09:09:58;21.29;62.42
18361;SHT31;9308;48.550;9.108;2023-08-30T09:12:24;20.99;63.57
18361;SHT31;9308;48.550;9.108;2023-08-30T09:14:56;21.34;62.31
18361;SHT31;9308;48.550;9.108;2023-08-30T09:17:21;21.49;62.32
18361;SHT31;9308;48.550;9.108;2023-08-30T09:19:46;21.03;61.45
18361;SHT31;9308;48.550;9.108;2023-08-30T09:22:12;21.20;61.49
18361;SHT31;9308;48.550;9.108;2023-08-30T09:24:41;21.62;62.32
18361;SHT31;9308;48.550;9.108;2023-08-30T09:27:06;21.47;62.34
18361;SHT31;9308;48.550;9.108;2023-08-30T09:29:32;21.65;61.44
18361;SHT31;9308;48.550;9.108;2023-08-30T09:31:58;21.95;62.83
18361;SHT31;9308;48.550;9.108;2023-08-30T09:34:24;21.99;61.55
18361;SHT31;9308;48.550;9.108;2023-08-30T09:36:50;22.09;60.74
18361;SHT31;9308;48.550;9.108;2023-08-30T09:39:16;22.08;59.84
18361;SHT31;9308;48.550;9.108;2023-08-30T09:41:43;22.60;59.94
18361;SHT31;9308;48.550;9.108;2023-08-30T09:44:19;22.67;59.94
18361;SHT31;9308;48.550;9.108;2023-08-30T09:46:53;22.77;58.50
18361;SHT31;9308;48.550;9.108;2023-08-30T09:49:23;22.85;60.24
18361;SHT31;9308;48.550;9.108;2023-08-30T09:51:50;22.85;59.18
18361;SHT31;9308;48.550;9.108;2023-08-30T09:54:21;22.85;57.32
18361;SHT31;9308;48.550;9.108;2023-08-30T09:56:47;22.88;58.35
18361;SHT31;9308;48.550;9.108;2023-08-30T09:59:14;22.94;58.12
18361;SHT31;9308;48.550;9.108;2023-08-30T10:01:43;23.12;59.10
18361;SHT31;9308;48.550;9.108;2023-08-30T10:04:09;23.09;56.13
18361;SHT31;9308;48.550;9.108;2023-08-30T10:06:36;22.90;58.13
18361;SHT31;9308;48.550;9.108;2023-08-30T10:09:02;23.19;56.74
18361;SHT31;9308;48.550;9.108;2023-08-30T10:11:35;22.98;56.62
18361;SHT31;9308;48.550;9.108;2023-08-30T10:14:02;22.88;57.05
18361;SHT31;9308;48.550;9.108;2023-08-30T10:16:32;22.64;58.88
18361;SHT31;9308;48.550;9.108;2023-08-30T10:19:04;22.53;56.25
18361;SHT31;9308;48.550;9.108;2023-08-30T10:21:32;23.39;56.59
18361;SHT31;9308;48.550;9.108;2023-08-30T10:23:59;23.29;55.64
18361;SHT31;9308;48.550;9.108;2023-08-30T10:26:28;25.08;53.34
18361;SHT31;9308;48.550;9.108;2023-08-30T10:28:55;24.33;53.72
18361;SHT31;9308;48.550;9.108;2023-08-30T10:31:22;24.66;54.19
18361;SHT31;9308;48.550;9.108;2023-08-30T10:33:49;24.78;52.97
18361;SHT31;9308;48.550;9.108;2023-08-30T10:36:21;26.91;48.44
18361;SHT31;9308;48.550;9.108;2023-08-30T10:38:49;25.90;49.14
18361;SHT31;9308;48.550;9.108;2023-08-30T10:41:23;26.96;47.03
18361;SHT31;9308;48.550;9.108;2023-08-30T10:43:50;26.53;47.44
18361;SHT31;9308;48.550;9.108;2023-08-30T10:46:34;28.89;43.59
18361;SHT31;9308;48.550;9.108;2023-08-30T10:49:13;28.51;42.03
18361;SHT31;9308;48.550;9.108;2023-08-30T10:51:42;29.45;43.22
18361;SHT31;9308;48.550;9.108;2023-08-30T10:54:13;30.21;41.32
18361;SHT31;9308;48.550;9.108;2023-08-30T10:59:20;29.78;40.02
18361;SHT31;9308;48.550;9.108;2023-08-30T11:01:50;29.02;42.17
18361;SHT31;9308;48.550;9.108;2023-08-30T11:04:17;31.26;39.91
18361;SHT31;9308;48.550;9.108;2023-08-30T11:06:44;32.81;38.69
18361;SHT31;9308;48.550;9.108;2023-08-30T11:09:12;32.22;38.91
18361;SHT31;9308;48.550;9.108;2023-08-30T11:11:38;33.79;34.12
18361;SHT31;9308;48.550;9.108;2023-08-30T11:14:07;35.55;32.43
18361;SHT31;9308;48.550;9.108;2023-08-30T11:16:34;35.71;30.30
18361;SHT31;9308;48.550;9.108;2023-08-30T11:19:07;35.79;29.37
18361;SHT31;9308;48.550;9.108;2023-08-30T11:21:45;37.28;29.93
18361;SHT31;9308;48.550;9.108;2023-08-30T11:24:10;38.44;27.23
18361;SHT31;9308;48.550;9.108;2023-08-30T11:26:37;40.03;27.08
18361;SHT31;9308;48.550;9.108;2023-08-30T11:29:08;36.99;30.69
18361;SHT31;9308;48.550;9.108;2023-08-30T11:31:34;32.15;35.15
18361;SHT31;9308;48.550;9.108;2023-08-30T11:34:00;30.41;38.96
18361;SHT31;9308;48.550;9.108;2023-08-30T11:36:30;35.71;32.75
18361;SHT31;9308;48.550;9.108;2023-08-30T11:38:56;38.82;29.64
18361;SHT31;9308;48.550;9.108;2023-08-30T11:41:26;39.24;28.74
18361;SHT31;9308;48.550;9.108;2023-08-30T11:43:52;35.47;30.59
18361;SHT31;9308;48.550;9.108;2023-08-30T11:46:18;33.89;31.82
18361;SHT31;9308;48.550;9.108;2023-08-30T11:48:45;32.77;34.04
18361;SHT31;9308;48.550;9.108;2023-08-30T11:51:11;32.39;36.43
18361;SHT31;9308;48.550;9.108;2023-08-30T11:53:38;31.53;34.47
18361;SHT31;9308;48.550;9.108;2023-08-30T11:56:05;33.45;35.90
18361;SHT31;9308;48.550;9.108;2023-08-30T11:58:32;32.86;37.10
18361;SHT31;9308;48.550;9.108;2023-08-30T12:00:58;31.85;38.59
18361;SHT31;9308;48.550;9.108;2023-08-30T12:03:26;30.44;38.91
18361;SHT31;9308;48.550;9.108;2023-08-30T12:05:51;29.29;40.43
18361;SHT31;9308;48.550;9.108;2023-08-30T12:08:20;29.43;39.05
18361;SHT31;9308;48.550;9.108;2023-08-30T12:10:49;29.18;42.23
18361;SHT31;9308;48.550;9.108;2023-08-30T12:13:32;29.75;40.64
18361;SHT31;9308;48.550;9.108;2023-08-30T12:15:59;28.58;39.85
18361;SHT31;9308;48.550;9.108;2023-08-30T12:18:28;28.38;41.20
18361;SHT31;9308;48.550;9.108;2023-08-30T12:21:01;28.27;39.70
18361;SHT31;9308;48.550;9.108;2023-08-30T12:23:29;26.15;43.30
18361;SHT31;9308;48.550;9.108;2023-08-30T12:28:23;25.00;45.56
18361;SHT31;9308;48.550;9.108;2023-08-30T12:30:48;24.91;45.05
18361;SHT31;9308;48.550;9.108;2023-08-30T12:33:16;24.06;45.93
18361;SHT31;9308;48.550;9.108;2023-08-30T12:35:41;23.80;48.63
18361;SHT31;9308;48.550;9.108;2023-08-30T12:38:07;23.51;48.58
18361;SHT31;9308;48.550;9.108;2023-08-30T12:40:32;23.60;48.36
18361;SHT31;9308;48.550;9.108;2023-08-30T12:42:57;23.56;49.18
18361;SHT31;9308;48.550;9.108;2023-08-30T12:45:23;24.74;47.27
18361;SHT31;9308;48.550;9.108;2023-08-30T12:47:48;26.90;43.00
18361;SHT31;9308;48.550;9.108;2023-08-30T12:50:13;27.54;42.46
18361;SHT31;9308;48.550;9.108;2023-08-30T12:52:39;27.51;42.66
18361;SHT31;9308;48.550;9.108;2023-08-30T12:55:04;27.08;42.05
18361;SHT31;9308;48.550;9.108;2023-08-30T12:57:30;26.87;43.47
18361;SHT31;9308;48.550;9.108;2023-08-30T12:59:55;25.45;45.48
18361;SHT31;9308;48.550;9.108;2023-08-30T13:02:20;24.76;46.45
18361;SHT31;9308;48.550;9.108;2023-08-30T13:04:46;24.52;46.98
18361;SHT31;9308;48.550;9.108;2023-08-30T13:07:11;24.32;46.30
18361;SHT31;9308;48.550;9.108;2023-08-30T13:09:36;24.18;47.46
18361;SHT31;9308;48.550;9.108;2023-08-30T13:12:02;23.84;48.36
18361;SHT31;9308;48.550;9.108;2023-08-30T13:14:27;23.91;49.29
18361;SHT31;9308;48.550;9.108;2023-08-30T13:16:52;23.78;49.29
18361;SHT31;9308;48.550;9.108;2023-08-30T13:19:18;23.80;50.37
18361;SHT31;9308;48.550;9.108;2023-08-30T13:21:43;23.73;52.80
18361;SHT31;9308;48.550;9.108;2023-08-30T13:24:08;25.50;48.64
18361;SHT31;9308;48.550;9.108;2023-08-30T13:26:34;25.80;47.52
18361;SHT31;9308;48.550;9.108;2023-08-30T13:28:59;25.05;49.72
18361;SHT31;9308;48.550;9.108;2023-08-30T13:31:27;23.88;51.17
18361;SHT31;9308;48.550;9.108;2023-08-30T13:33:52;24.15;52.88
18361;SHT31;9308;48.550;9.108;2023-08-30T13:36:17;24.52;52.57
18361;SHT31;9308;48.550;9.108;2023-08-30T13:38:43;24.49;50.60
18361;SHT31;9308;48.550;9.108;2023-08-30T13:41:08;25.29;50.44
18361;SHT31;9308;48.550;9.108;2023-08-30T13:43:34;24.76;51.57
18361;SHT31;9308;48.550;9.108;2023-08-30T13:45:59;24.86;52.21
18361;SHT31;9308;48.550;9.108;2023-08-30T13:48:25;25.15;50.09
18361;SHT31;9308;48.550;9.108;2023-08-30T13:50:50;26.14;49.46
18361;SHT31;9308;48.550;9.108;2023-08-30T13:53:16;25.73;50.25
18361;SHT31;9308;48.550;9.108;2023-08-30T13:55:45;25.87;49.14
18361;SHT31;9308;48.550;9.108;2023-08-30T13:58:10;29.81;41.74
18361;SHT31;9308;48.550;9.108;2023-08-30T14:00:36;31.74;36.74
18361;SHT31;9308;48.550;9.108;2023-08-30T14:03:02;31.95;35.43
18361;SHT31;9308;48.550;9.108;2023-08-30T14:05:27;29.66;37.34
18361;SHT31;9308;48.550;9.108;2023-08-30T14:07:53;28.09;44.78
18361;SHT31;9308;48.550;9.108;2023-08-30T14:10:18;27.70;45.37
18361;SHT31;9308;48.550;9.108;2023-08-30T14:12:44;27.01;45.99
18361;SHT31;9308;48.550;9.108;2023-08-30T14:15:09;26.24;48.39
18361;SHT31;9308;48.550;9.108;2023-08-30T14:17:34;26.24;48.80
18361;SHT31;9308;48.550;9.108;2023-08-30T14:20:00;25.43;49.52
18361;SHT31;9308;48.550;9.108;2023-08-30T14:22:26;24.86;47.79
18361;SHT31;9308;48.550;9.108;2023-08-30T14:24:51;24.50;50.88
18361;SHT31;9308;48.550;9.108;2023-08-30T14:27:16;24.23;54.26
18361;SHT31;9308;48.550;9.108;2023-08-30T14:29:42;24.05;54.84
18361;SHT31;9308;48.550;9.108;2023-08-30T14:32:07;23.95;51.01
18361;SHT31;9308;48.550;9.108;2023-08-30T14:34:32;23.85;54.52
18361;SHT31;9308;48.550;9.108;2023-08-30T14:36:58;26.21;50.92
18361;SHT31;9308;48.550;9.108;2023-08-30T14:39:23;30.47;43.06
18361;SHT31;9308;48.550;9.108;2023-08-30T14:41:48;29.37;41.20
18361;SHT31;9308;48.550;9.108;2023-08-30T14:44:14;28.37;42.92
18361;SHT31;9308;48.550;9.108;2023-08-30T14:46:39;27.01;43.87
18361;SHT31;9308;48.550;9.108;2023-08-30T14:49:04;26.60;44.89
18361;SHT31;9308;48.550;9.108;2023-08-30T14:51:30;26.32;46.25
18361;SHT31;9308;48.550;9.108;2023-08-30T14:53:55;25.50;51.37
18361;SHT31;9308;48.550;9.108;2023-08-30T14:56:20;25.32;52.48
18361;SHT31;9308;48.550;9.108;2023-08-30T14:58:45;24.91;53.82
18361;SHT31;9308;48.550;9.108;2023-08-30T15:01:17;24.43;55.60
18361;SHT31;9308;48.550;9.108;2023-08-30T15:03:42;24.49;52.29
18361;SHT31;9308;48.550;9.108;2023-08-30T15:06:07;24.01;55.31
18361;SHT31;9308;48.550;9.108;2023-08-30T15:08:33;23.56;54.19
18361;SHT31;9308;48.550;9.108;2023-08-30T15:10:58;23.40;53.68
18361;SHT31;9308;48.550;9.108;2023-08-30T15:13:23;23.47;52.22
18361;SHT31;9308;48.550;9.108;2023-08-30T15:15:49;23.18;55.80
18361;SHT31;9308;48.550;9.108;2023-08-30T15:18:15;23.23;54.97
18361;SHT31;9308;48.550;9.108;2023-08-30T15:20:40;23.18;57.15
18361;SHT31;9308;48.550;9.108;2023-08-30T15:23:06;23.16;58.43
18361;SHT31;9308;48.550;9.108;2023-08-30T15:25:31;23.23;57.05
18361;SHT31;9308;48.550;9.108;2023-08-30T15:27:57;24.46;57.49
18361;SHT31;9308;48.550;9.108;2023-08-30T15:30:22;25.22;56.38
18361;SHT31;9308;48.550;9.108;2023-08-30T15:32:47;25.83;52.12
18361;SHT31;9308;48.550;9.108;2023-08-30T15:35:13;26.70;50.69
18361;SHT31;9308;48.550;9.108;2023-08-30T15:37:38;28.30;48.25
18361;SHT31;9308;48.550;9.108;2023-08-30T15:40:05;29.37;44.67
18361;SHT31;9308;48.550;9.108;2023-08-30T15:42:34;27.59;47.52
18361;SHT31;9308;48.550;9.108;2023-08-30T15:45:00;26.78;48.54
18361;SHT31;9308;48.550;9.108;2023-08-30T15:47:26;25.97;50.63
18361;SHT31;9308;48.550;9.108;2023-08-30T15:49:52;25.15;52.11